Time;durP1;ratioP1;P1;durP2;ratioP2;P2;SDS_P1;SDS_P2;PMS_P1;PMS_P2;Temp;Humidity;BMP_temperature;BMP_pressure;BME280_temperature;BME280_humidity;BME280_pressure;Samples;Min_cycle;Max_cycle;Signal;HPM_P1;HPM_P2
2022/05/15 00:00:38;;;;;;;3.87;1.71;;;;;;;;;;333709;158;857392;-62
2022/05/15 00:01:40;;;;;;;6.25;2.00;;;;;;;;;;341255;155;864743;-62
2022/05/15 00:02:41;;;;;;;5.19;1.91;;;;;;;;;;341420;155;857735;-62
2022/05/15 00:03:43;;;;;;;3.70;1.56;;;;;;;;;;342988;155;862313;-62
2022/05/15 00:04:44;;;;;;;3.96;1.63;;;;;;;;;;344252;156;858843;-62
2022/05/15 00:05:48;;;;;;;5.33;1.96;;;;;;;;;;347211;154;859671;-61
2022/05/15 00:06:50;;;;;;;4.23;2.17;;;;;;;;;;344031;156;858894;-62
2022/05/15 00:07:52;;;;;;;2.54;1.72;;;;;;;;;;347346;154;864815;-61
2022/05/15 00:08:53;;;;;;;4.48;1.75;;;;;;;;;;344272;156;857441;-60
2022/05/15 00:09:55;;;;;;;6.79;2.01;;;;;;;;;;347377;154;857436;-60
2022/05/15 00:10:57;;;;;;;6.55;2.05;;;;;;;;;;344332;156;858636;-61
2022/05/15 00:11:58;;;;;;;6.17;2.01;;;;;;;;;;347233;154;865358;-60
2022/05/15 00:13:00;;;;;;;5.15;1.94;;;;;;;;;;344298;156;857325;-60
2022/05/15 00:14:02;;;;;;;4.81;1.85;;;;;;;;;;347069;154;864694;-60
2022/05/15 00:15:05;;;;;;;4.09;1.63;;;;;;;;;;343198;155;859386;-60
2022/05/15 00:16:07;;;;;;;3.72;1.99;;;;;;;;;;341467;157;859129;-60
2022/05/15 00:17:09;;;;;;;5.13;1.86;;;;;;;;;;341343;157;857105;-60
2022/05/15 00:18:10;;;;;;;6.99;2.24;;;;;;;;;;341485;157;857256;-61
2022/05/15 00:19:12;;;;;;;9.58;2.31;;;;;;;;;;341379;157;864864;-61
2022/05/15 00:20:14;;;;;;;3.09;1.98;;;;;;;;;;341427;157;857340;-61
2022/05/15 00:21:15;;;;;;;3.58;2.11;;;;;;;;;;341409;157;857346;-60
2022/05/15 00:22:17;;;;;;;3.71;2.16;;;;;;;;;;341317;157;865245;-60
2022/05/15 00:23:20;;;;;;;4.06;1.89;;;;;;;;;;343242;154;857274;-60
2022/05/15 00:24:22;;;;;;;5.17;2.16;;;;;;;;;;346875;155;859550;-62
2022/05/15 00:25:23;;;;;;;4.64;2.30;;;;;;;;;;348527;151;857173;-62
2022/05/15 00:26:25;;;;;;;5.00;2.14;;;;;;;;;;347267;154;865393;-62
2022/05/15 00:27:27;;;;;;;10.36;2.28;;;;;;;;;;347127;154;864732;-62
2022/05/15 00:28:28;;;;;;;4.66;2.24;;;;;;;;;;347081;152;864751;-62
2022/05/15 00:29:30;;;;;;;4.57;2.09;;;;;;;;;;352392;152;857565;-61
2022/05/15 00:30:32;;;;;;;2.64;1.85;;;;;;;;;;346686;153;857267;-62
2022/05/15 00:31:34;;;;;;;7.92;2.61;;;;;;;;;;345968;155;857163;-62
2022/05/15 00:32:35;;;;;;;4.94;2.39;;;;;;;;;;340756;158;858299;-62
2022/05/15 00:33:37;;;;;;;4.53;2.19;;;;;;;;;;339803;158;860599;-61
2022/05/15 00:34:38;;;;;;;9.76;3.28;;;;;;;;;;331248;162;859377;-62
2022/05/15 00:35:40;;;;;;;7.40;2.14;;;;;;;;;;341285;154;858893;-62
2022/05/15 00:36:42;;;;;;;8.18;2.37;;;;;;;;;;350051;154;859114;-62
2022/05/15 00:37:43;;;;;;;7.37;2.22;;;;;;;;;;347667;154;857395;-61
2022/05/15 00:38:45;;;;;;;7.94;2.50;;;;;;;;;;346873;155;857243;-62
2022/05/15 00:39:46;;;;;;;5.09;2.26;;;;;;;;;;346648;155;859059;-62
2022/05/15 00:40:48;;;;;;;6.58;2.09;;;;;;;;;;346807;155;859462;-61
2022/05/15 00:41:50;;;;;;;11.65;2.30;;;;;;;;;;346576;155;858803;-61
2022/05/15 00:42:52;;;;;;;5.14;2.41;;;;;;;;;;346858;155;857320;-61
2022/05/15 00:43:54;;;;;;;7.42;2.26;;;;;;;;;;345970;155;860205;-61
2022/05/15 00:44:56;;;;;;;5.97;2.18;;;;;;;;;;346614;155;862165;-61
2022/05/15 00:45:57;;;;;;;5.21;2.57;;;;;;;;;;346467;155;857241;-61
2022/05/15 00:46:59;;;;;;;6.06;2.40;;;;;;;;;;346674;155;857308;-61
2022/05/15 00:48:00;;;;;;;6.03;2.39;;;;;;;;;;346406;155;864821;-61
2022/05/15 00:49:03;;;;;;;7.74;2.78;;;;;;;;;;346098;155;865897;-61
2022/05/15 00:50:05;;;;;;;6.17;2.26;;;;;;;;;;342536;155;858923;-62
2022/05/15 00:51:09;;;;;;;4.31;2.33;;;;;;;;;;340711;158;864715;-61
2022/05/15 00:52:12;;;;;;;5.59;2.06;;;;;;;;;;340326;158;859153;-62
2022/05/15 00:53:14;;;;;;;5.54;2.15;;;;;;;;;;340579;158;864899;-62
2022/05/15 00:54:17;;;;;;;7.09;2.76;;;;;;;;;;340545;158;857392;-62
2022/05/15 00:55:20;;;;;;;4.58;2.19;;;;;;;;;;347080;154;865349;-61
2022/05/15 00:56:22;;;;;;;5.37;2.28;;;;;;;;;;341152;154;859479;-62
2022/05/15 00:57:26;;;;;;;7.02;2.68;;;;;;;;;;340705;158;859386;-62
2022/05/15 00:58:31;;;;;;;4.64;2.28;;;;;;;;;;340515;158;858657;-62
2022/05/15 00:59:34;;;;;;;8.28;2.10;;;;;;;;;;336275;158;857417;-61
2022/05/15 01:00:35;;;;;;;3.77;2.07;;;;;;;;;;340708;158;857746;-62
2022/05/15 01:01:37;;;;;;;6.13;2.54;;;;;;;;;;338507;156;858631;-61
2022/05/15 01:02:39;;;;;;;3.98;2.18;;;;;;;;;;338516;158;857361;-61
2022/05/15 01:03:42;;;;;;;3.95;2.11;;;;;;;;;;338548;156;864979;-61
2022/05/15 01:04:43;;;;;;;4.83;1.93;;;;;;;;;;340681;156;857335;-61
2022/05/15 01:05:46;;;;;;;7.16;2.24;;;;;;;;;;336755;160;857303;-62
2022/05/15 01:06:47;;;;;;;4.69;1.97;;;;;;;;;;346697;155;857249;-62
2022/05/15 01:07:49;;;;;;;6.44;2.41;;;;;;;;;;346493;155;864779;-62
2022/05/15 01:08:50;;;;;;;6.18;1.84;;;;;;;;;;346685;155;866534;-62
2022/05/15 01:09:52;;;;;;;4.74;2.39;;;;;;;;;;344271;155;858393;-62
2022/05/15 01:10:55;;;;;;;7.36;2.35;;;;;;;;;;334597;160;858496;-61
2022/05/15 01:11:56;;;;;;;4.23;2.12;;;;;;;;;;344808;153;859625;-62
2022/05/15 01:12:58;;;;;;;5.06;1.99;;;;;;;;;;347617;155;864824;-62
2022/05/15 01:14:01;;;;;;;5.28;2.25;;;;;;;;;;341481;155;857274;-61
2022/05/15 01:15:04;;;;;;;9.71;2.29;;;;;;;;;;334691;158;857901;-61
2022/05/15 01:16:06;;;;;;;6.08;2.19;;;;;;;;;;347006;150;857764;-61
2022/05/15 01:17:08;;;;;;;3.64;1.98;;;;;;;;;;357577;150;857557;-61
2022/05/15 01:18:10;;;;;;;5.86;1.97;;;;;;;;;;350482;150;864650;-62
2022/05/15 01:19:11;;;;;;;3.11;1.91;;;;;;;;;;347794;155;857286;-62
2022/05/15 01:20:14;;;;;;;8.03;2.26;;;;;;;;;;352499;152;866377;-62
2022/05/15 01:21:17;;;;;;;5.44;2.36;;;;;;;;;;354069;152;857082;-62
2022/05/15 01:22:19;;;;;;;6.61;2.77;;;;;;;;;;348501;152;857244;-61
2022/05/15 01:23:20;;;;;;;9.89;2.62;;;;;;;;;;347711;155;866585;-61
2022/05/15 01:24:22;;;;;;;8.26;1.98;;;;;;;;;;358331;148;859947;-63
2022/05/15 01:25:25;;;;;;;7.08;2.50;;;;;;;;;;359371;149;856437;-64
2022/05/15 01:26:26;;;;;;;6.89;2.73;;;;;;;;;;345880;153;856348;-65
2022/05/15 01:27:28;;;;;;;6.16;2.79;;;;;;;;;;345994;153;856107;-64
2022/05/15 01:28:30;;;;;;;4.83;2.58;;;;;;;;;;346192;153;856371;-64
2022/05/15 01:29:32;;;;;;;7.63;2.25;;;;;;;;;;346064;153;856069;-64
2022/05/15 01:30:35;;;;;;;9.69;2.17;;;;;;;;;;345909;156;856492;-64
2022/05/15 01:31:37;;;;;;;7.05;2.32;;;;;;;;;;346625;153;863945;-63
2022/05/15 01:32:38;;;;;;;6.87;2.25;;;;;;;;;;350801;153;856228;-64
2022/05/15 01:33:40;;;;;;;5.91;2.70;;;;;;;;;;349876;153;856198;-64
2022/05/15 01:34:41;;;;;;;5.01;2.41;;;;;;;;;;345983;156;856188;-64
2022/05/15 01:35:43;;;;;;;5.92;2.49;;;;;;;;;;346848;152;856342;-64
2022/05/15 01:36:44;;;;;;;7.13;2.58;;;;;;;;;;348367;155;856243;-64
2022/05/15 01:37:46;;;;;;;5.99;2.37;;;;;;;;;;344071;155;864250;-63
2022/05/15 01:38:47;;;;;;;8.09;2.93;;;;;;;;;;345949;156;863772;-65
2022/05/15 01:39:49;;;;;;;5.30;2.38;;;;;;;;;;343081;154;856070;-64
2022/05/15 01:40:51;;;;;;;6.25;2.81;;;;;;;;;;342857;156;863586;-65
2022/05/15 01:41:52;;;;;;;5.79;2.30;;;;;;;;;;345313;154;856171;-64
2022/05/15 01:44:47;;;;;;;5.53;2.45;;;;;;;9.12;66.00;99561.84;374931;142;881657;-62
2022/05/15 01:45:49;;;;;;;4.14;2.11;;;;;;;9.01;65.69;99565.36;366513;147;857192;-62
2022/05/15 01:46:51;;;;;;;6.13;2.34;;;;;;;9.00;65.49;99566.20;366129;147;864686;-61
2022/05/15 01:47:53;;;;;;;6.59;2.26;;;;;;;9.00;65.45;99568.78;363706;147;858771;-62
2022/05/15 01:48:54;;;;;;;5.85;2.36;;;;;;;;;;362648;148;865811;-62
2022/05/15 01:49:56;;;;;;;6.91;2.21;;;;;;;;;;364911;147;866883;-61
2022/05/15 01:50:57;;;;;;;6.18;2.34;;;;;;;;;;366127;147;866231;-61
2022/05/15 01:51:59;;;;;;;4.17;2.04;;;;;;;;;;366123;147;859344;-61
2022/05/15 01:53:01;;;;;;;6.39;2.46;;;;;;;;;;366221;147;858064;-62
2022/05/15 01:54:03;;;;;;;2.61;1.76;;;;;;;;;;362918;147;865006;-62
2022/05/15 01:55:05;;;;;;;7.39;2.35;;;;;;;;;;359672;150;857375;-64
2022/05/15 01:56:07;;;;;;;4.69;2.37;;;;;;;;;;364029;147;866861;-62
2022/05/15 01:57:09;;;;;;;4.76;2.94;;;;;;;;;;366138;147;857137;-62
2022/05/15 01:58:10;;;;;;;8.58;2.37;;;;;;;;;;366125;147;865501;-63
2022/05/15 01:59:12;;;;;;;6.47;2.55;;;;;;;;;;366151;147;858141;-63
2022/05/15 02:00:15;;;;;;;4.84;2.42;;;;;;;;;;366167;147;859350;-62
2022/05/15 02:01:17;;;;;;;5.26;2.71;;;;;;;;;;366163;147;858864;-63
2022/05/15 02:02:19;;;;;;;5.00;2.93;;;;;;;;;;366106;147;858795;-62
2022/05/15 02:03:20;;;;;;;7.66;3.04;;;;;;;;;;353532;150;864724;-62
2022/05/15 02:04:22;;;;;;;8.60;2.69;;;;;;;;;;356455;147;857304;-62
2022/05/15 02:05:24;;;;;;;4.65;2.59;;;;;;;;;;357974;150;857380;-63
2022/05/15 02:06:26;;;;;;;3.76;2.31;;;;;;;;;;359220;147;857291;-62
2022/05/15 02:07:27;;;;;;;4.84;2.56;;;;;;;;;;359235;147;864752;-62
2022/05/15 02:08:31;;;;;;;6.61;2.83;;;;;;;;;;359304;150;861269;-62
2022/05/15 02:09:32;;;;;;;8.39;2.71;;;;;;;;;;359319;147;857956;-62
2022/05/15 02:10:34;;;;;;;4.55;2.27;;;;;;;;;;359343;150;857705;-62
2022/05/15 02:11:38;;;;;;;14.30;2.50;;;;;;;;;;359374;148;859342;-62
2022/05/15 02:12:39;;;;;;;9.03;2.65;;;;;;;;;;359120;149;857368;-63
2022/05/15 02:13:41;;;;;;;4.41;1.98;;;;;;;;;;360533;147;858942;-62
2022/05/15 02:14:42;;;;;;;8.16;3.57;;;;;;;;;;364603;147;859340;-62
2022/05/15 02:15:44;;;;;;;4.24;2.36;;;;;;;;;;363108;147;858362;-62
2022/05/15 02:16:45;;;;;;;5.81;2.55;;;;;;;;;;359352;150;857782;-62
2022/05/15 02:17:47;;;;;;;5.67;2.39;;;;;;;;;;357387;147;864991;-62
2022/05/15 02:18:49;;;;;;;7.64;2.80;;;;;;;;;;359273;150;864641;-63
2022/05/15 02:19:50;;;;;;;4.66;2.66;;;;;;;;;;359479;147;857090;-62
2022/05/15 02:20:52;;;;;;;5.88;2.59;;;;;;;;;;359328;150;857166;-62
2022/05/15 02:21:53;;;;;;;4.48;2.16;;;;;;;;;;359360;147;864765;-61
2022/05/15 02:22:55;;;;;;;8.21;2.79;;;;;;;;;;354057;149;857193;-61
2022/05/15 02:23:57;;;;;;;3.64;2.12;;;;;;;;;;357784;147;864797;-61
2022/05/15 02:24:58;;;;;;;6.32;2.50;;;;;;;;;;364551;147;857302;-61
2022/05/15 02:26:01;;;;;;;4.01;2.26;;;;;;;;;;363101;147;857284;-61
2022/05/15 02:27:03;;;;;;;5.03;2.18;;;;;;;;;;364512;147;865039;-61
2022/05/15 02:28:04;;;;;;;4.40;2.49;;;;;;;;;;364378;147;859822;-61
2022/05/15 02:29:06;;;;;;;4.26;2.24;;;;;;;;;;364541;147;857087;-61
2022/05/15 02:30:09;;;;;;;5.76;2.42;;;;;;;;;;364206;147;866877;-61
2022/05/15 02:31:11;;;;;;;5.31;2.50;;;;;;;;;;362992;147;857758;-61
2022/05/15 02:32:12;;;;;;;6.74;2.99;;;;;;;;;;363196;147;859765;-61
2022/05/15 02:33:14;;;;;;;9.57;3.19;;;;;;;;;;364436;147;864799;-61
2022/05/15 02:34:15;;;;;;;7.05;3.32;;;;;;;;;;364608;147;864919;-63
2022/05/15 02:35:17;;;;;;;6.04;3.04;;;;;;;;;;364441;147;865700;-62
2022/05/15 02:36:20;;;;;;;6.50;3.57;;;;;;;;;;359121;147;858328;-62
2022/05/15 02:37:22;;;;;;;7.56;2.89;;;;;;;;;;356660;150;859833;-67
2022/05/15 02:38:24;;;;;;;8.19;2.99;;;;;;;;;;353163;152;859028;-61
2022/05/15 02:39:26;;;;;;;5.73;2.22;;;;;;;;;;353000;152;864792;-61
2022/05/15 02:40:27;;;;;;;4.40;2.59;;;;;;;;;;353196;152;857196;-61
2022/05/15 02:41:30;;;;;;;7.35;3.09;;;;;;;;;;354208;151;866462;-61
2022/05/15 02:42:32;;;;;;;6.63;2.91;;;;;;;;;;356284;151;866644;-61
2022/05/15 02:43:33;;;;;;;6.61;2.61;;;;;;;;;;356322;151;865756;-61
2022/05/15 02:44:35;;;;;;;4.73;2.61;;;;;;;;;;360371;147;861947;-61
2022/05/15 02:45:36;;;;;;;7.04;3.20;;;;;;;;;;364696;147;859283;-69
2022/05/15 02:46:38;;;;;;;6.49;3.04;;;;;;;;;;364886;147;858941;-61
2022/05/15 02:47:40;;;;;;;5.21;3.36;;;;;;;;;;364673;147;864834;-61
2022/05/15 02:51:21;;;;;;;7.19;3.51;;;;;;;;;;364137;147;857635;-61
2022/05/15 02:52:23;;;;;;;6.44;3.37;;;;;;;;;;363046;147;857600;-61
2022/05/15 02:53:24;;;;;;;9.10;3.19;;;;;;;;;;359431;149;865249;-62
2022/05/15 02:54:26;;;;;;;6.40;3.51;;;;;;;;;;356484;150;859355;-62
2022/05/15 02:55:28;;;;;;;8.46;3.75;;;;;;;;;;356125;151;858540;-61
2022/05/15 02:56:31;;;;;;;10.18;3.61;;;;;;;;;;356042;151;858743;-61
2022/05/15 02:57:32;;;;;;;7.89;3.52;;;;;;;;;;355952;151;864771;-62
2022/05/15 02:58:34;;;;;;;5.02;3.06;;;;;;;;;;356045;151;858806;-61
2022/05/15 02:59:37;;;;;;;6.30;3.14;;;;;;;;;;360596;148;857231;-61
2022/05/15 03:00:39;;;;;;;6.22;3.38;;;;;;;;;;362561;148;857104;-62
2022/05/15 03:01:41;;;;;;;6.70;3.26;;;;;;;;;;362668;148;857321;-63
2022/05/15 03:02:42;;;;;;;11.04;4.14;;;;;;;;;;363259;147;866480;-62
2022/05/15 03:03:44;;;;;;;12.95;3.58;;;;;;;;;;364538;147;865697;-62
2022/05/15 03:04:47;;;;;;;6.29;3.31;;;;;;;;;;358258;147;857828;-62
2022/05/15 03:05:48;;;;;;;5.96;3.16;;;;;;;;;;357994;150;857303;-62
2022/05/15 03:06:50;;;;;;;6.24;3.07;;;;;;;;;;358013;150;859468;-63
2022/05/15 03:07:52;;;;;;;7.50;3.01;;;;;;;;;;358480;147;857329;-62
2022/05/15 03:08:54;;;;;;;6.27;3.20;;;;;;;;;;359527;150;857080;-64
2022/05/15 03:09:55;;;;;;;7.78;3.11;;;;;;;;;;359401;150;857142;-62
2022/05/15 03:10:57;;;;;;;4.95;3.14;;;;;;;;;;359376;150;857246;-63
2022/05/15 03:11:58;;;;;;;8.34;3.44;;;;;;;;;;359307;149;865270;-62
2022/05/15 03:13:00;;;;;;;5.08;3.54;;;;;;;;;;359404;148;857777;-62
2022/05/15 03:14:01;;;;;;;7.84;3.44;;;;;;;;;;359367;150;857690;-62
2022/05/15 03:15:05;;;;;;;9.16;3.10;;;;;;;;;;359371;149;857226;-63
2022/05/15 03:16:07;;;;;;;4.45;2.89;;;;;;;;;;359326;150;857588;-62
2022/05/15 03:17:09;;;;;;;10.01;4.02;;;;;;;;;;359311;150;856983;-62
2022/05/15 03:18:10;;;;;;;6.90;3.23;;;;;;;;;;359293;150;857971;-62
2022/05/15 03:19:12;;;;;;;6.11;3.07;;;;;;;;;;353812;150;857250;-62
2022/05/15 03:20:14;;;;;;;6.54;3.10;;;;;;;;;;351639;153;857222;-62
2022/05/15 03:21:29;;;;;;;10.33;3.31;;;;;;;;;;351590;153;864789;-62
2022/05/15 03:22:30;;;;;;;10.41;2.79;;;;;;;;;;351466;153;859335;-63
2022/05/15 03:23:32;;;;;;;8.05;3.20;;;;;;;;;;351519;153;857179;-63
2022/05/15 03:24:33;;;;;;;6.52;3.35;;;;;;;;;;351502;153;865311;-64
2022/05/15 03:25:35;;;;;;;9.27;3.18;;;;;;;;;;356015;147;857275;-63
2022/05/15 03:26:38;;;;;;;6.79;3.46;;;;;;;;;;364543;147;857098;-64
2022/05/15 03:27:40;;;;;;;5.87;3.12;;;;;;;;;;364404;147;864937;-64
2022/05/15 03:28:42;;;;;;;5.71;2.65;;;;;;;;;;362988;147;857929;-63
2022/05/15 03:29:43;;;;;;;5.56;2.85;;;;;;;;;;360669;147;857479;-63
2022/05/15 03:30:45;;;;;;;5.60;3.09;;;;;;;;;;364679;147;857763;-63
2022/05/15 03:31:46;;;;;;;8.32;2.97;;;;;;;;;;362981;147;866587;-63
2022/05/15 03:32:48;;;;;;;6.00;3.00;;;;;;;;;;359368;150;858993;-63
2022/05/15 03:33:49;;;;;;;7.11;3.41;;;;;;;;;;359428;147;866150;-64
2022/05/15 03:34:51;;;;;;;7.10;3.36;;;;;;;;;;359407;148;857366;-61
2022/05/15 03:35:52;;;;;;;4.80;3.38;;;;;;;;;;360244;147;860828;-62
2022/05/15 03:36:54;;;;;;;5.19;3.06;;;;;;;;;;359354;150;858613;-61
2022/05/15 03:37:56;;;;;;;7.01;3.23;;;;;;;;;;360455;147;865310;-61
2022/05/15 03:38:58;;;;;;;6.76;3.37;;;;;;;;;;364622;147;858125;-61
2022/05/15 03:39:59;;;;;;;10.81;3.56;;;;;;;;;;363562;147;864788;-61
2022/05/15 03:41:01;;;;;;;6.01;3.14;;;;;;;;;;362394;147;865225;-61
2022/05/15 03:42:03;;;;;;;7.62;3.62;;;;;;;;;;361711;147;864796;-61
2022/05/15 03:43:05;;;;;;;7.32;3.54;;;;;;;;;;364360;145;864682;-61
2022/05/15 03:44:06;;;;;;;8.23;3.66;;;;;;;;;;363230;147;857922;-62
2022/05/15 03:45:08;;;;;;;7.57;3.34;;;;;;;;;;359344;147;865951;-62
2022/05/15 03:46:10;;;;;;;7.16;3.77;;;;;;;;;;359585;147;859254;-61
2022/05/15 03:47:12;;;;;;;8.24;3.20;;;;;;;;;;359317;150;859470;-62
2022/05/15 03:48:14;;;;;;;9.67;3.51;;;;;;;;;;359356;149;857640;-62
2022/05/15 03:49:15;;;;;;;8.85;3.21;;;;;;;;;;359389;150;857733;-62
2022/05/15 03:50:17;;;;;;;4.80;3.19;;;;;;;;;;359260;150;865877;-62
2022/05/15 03:51:19;;;;;;;8.24;3.24;;;;;;;;;;359365;149;858389;-62
2022/05/15 03:52:21;;;;;;;7.47;3.26;;;;;;;;;;359407;150;857370;-62
2022/05/15 03:53:24;;;;;;;7.27;3.35;;;;;;;;;;359376;147;864869;-61
2022/05/15 03:54:25;;;;;;;6.78;2.88;;;;;;;;;;359140;147;857344;-62
2022/05/15 03:55:27;;;;;;;8.69;3.00;;;;;;;;;;359368;148;858268;-61
2022/05/15 03:57:55;;;;;;;7.48;3.17;;;;;;;;;;358753;150;859051;-62
2022/05/15 03:58:52;;;;;;;9.46;3.95;;;;;;;;;;358520;150;857569;-62
2022/05/15 03:59:53;;;;;;;7.58;3.14;;;;;;;;;;358546;150;857179;-61
2022/05/15 04:00:55;;;;;;;8.06;3.32;;;;;;;;;;358616;150;860663;-61
2022/05/15 04:01:57;;;;;;;4.69;2.87;;;;;;;;;;358611;150;857264;-61
2022/05/15 04:02:59;;;;;;;10.25;3.29;;;;;;;;;;358441;150;864924;-62
2022/05/15 04:04:00;;;;;;;8.50;3.49;;;;;;;;;;358502;150;857241;-61
2022/05/15 04:05:02;;;;;;;6.68;3.17;;;;;;;;;;354588;150;857300;-61
2022/05/15 04:06:04;;;;;;;6.16;3.59;;;;;;;;;;352766;152;857187;-62
2022/05/15 04:07:06;;;;;;;5.67;3.33;;;;;;;;;;352837;152;859674;-61
2022/05/15 04:08:07;;;;;;;5.40;2.94;;;;;;;;;;352743;152;859718;-61
2022/05/15 04:09:09;;;;;;;5.46;3.41;;;;;;;;;;352813;152;857206;-59
2022/05/15 04:10:11;;;;;;;5.76;3.39;;;;;;;;;;352751;152;857209;-62
2022/05/15 04:11:13;;;;;;;7.29;3.17;;;;;;;;;;352748;152;864823;-61
2022/05/15 04:12:15;;;;;;;9.43;4.22;;;;;;;;;;352623;152;864877;-62
2022/05/15 04:13:18;;;;;;;5.34;3.24;;;;;;;;;;356362;151;857767;-62
2022/05/15 04:14:20;;;;;;;7.08;3.20;;;;;;;;;;356294;151;857777;-62
2022/05/15 04:15:21;;;;;;;6.55;3.25;;;;;;;;;;357909;150;858039;-62
2022/05/15 04:16:23;;;;;;;7.48;3.38;;;;;;;;;;358976;150;857319;-62
2022/05/15 04:17:26;;;;;;;12.86;3.74;;;;;;;;;;358845;150;864909;-62
2022/05/15 04:18:28;;;;;;;6.69;3.51;;;;;;;;;;358898;150;857341;-62
2022/05/15 04:19:29;;;;;;;8.09;3.71;;;;;;;;;;358936;150;857629;-62
2022/05/15 04:20:31;;;;;;;8.00;3.23;;;;;;;;;;359121;150;858538;-63
2022/05/15 04:21:37;;;;;;;10.46;3.21;;;;;;;;;;358698;143;864877;-63
2022/05/15 04:22:36;;;;;;;4.74;3.04;;;;;;;;;;350086;152;856406;-62
2022/05/15 04:23:37;;;;;;;5.44;2.84;;;;;;;;;;350071;153;859141;-63
2022/05/15 04:24:39;;;;;;;5.74;2.89;;;;;;;;;;350016;153;857815;-64
2022/05/15 04:25:40;;;;;;;6.06;3.34;;;;;;;;;;348040;153;857383;-63
2022/05/15 04:26:42;;;;;;;7.84;3.81;;;;;;;;;;345754;156;857423;-63
2022/05/15 04:27:43;;;;;;;9.59;2.93;;;;;;;;;;345775;156;857419;-63
2022/05/15 04:28:45;;;;;;;5.39;3.14;;;;;;;;;;347286;154;866642;-62
2022/05/15 04:29:47;;;;;;;5.44;3.11;;;;;;;;;;350077;154;857327;-63
2022/05/15 04:30:48;;;;;;;7.19;3.16;;;;;;;;;;350027;153;867029;-63
2022/05/15 04:31:55;;;;;;;6.84;3.15;;;;;;;;;;349965;154;866471;-62
2022/05/15 04:32:54;;;;;;;9.52;3.41;;;;;;;;;;349678;154;858802;-63
2022/05/15 04:33:55;;;;;;;7.20;3.02;;;;;;;;;;351611;152;865617;-63
2022/05/15 04:34:57;;;;;;;7.56;3.97;;;;;;;;;;354132;152;864810;-62
2022/05/15 04:35:58;;;;;;;10.03;3.25;;;;;;;;;;352000;152;857292;-63
2022/05/15 04:37:00;;;;;;;8.66;3.04;;;;;;;;;;350037;153;857347;-63
2022/05/15 04:38:01;;;;;;;10.66;3.37;;;;;;;;;;348339;154;864747;-63
2022/05/15 04:39:04;;;;;;;7.14;3.89;;;;;;;;;;350082;153;857146;-65
2022/05/15 04:40:07;;;;;;;10.21;3.25;;;;;;;;;;349998;154;857607;-62
2022/05/15 04:41:08;;;;;;;8.08;3.00;;;;;;;;;;349975;153;865782;-63
2022/05/15 04:42:10;;;;;;;10.75;3.13;;;;;;;;;;350035;154;859044;-62
2022/05/15 04:43:12;;;;;;;6.55;2.92;;;;;;;;;;349916;154;866519;-62
2022/05/15 04:44:13;;;;;;;7.36;3.02;;;;;;;;;;349995;153;857594;-62
2022/05/15 04:45:15;;;;;;;9.64;3.46;;;;;;;;;;349932;154;859716;-62
2022/05/15 04:46:18;;;;;;;6.06;3.17;;;;;;;;;;349836;153;866991;-64
2022/05/15 04:47:19;;;;;;;4.01;2.87;;;;;;;;;;349895;154;866688;-63
2022/05/15 04:48:21;;;;;;;5.12;3.00;;;;;;;;;;349880;153;857286;-63
2022/05/15 04:49:22;;;;;;;6.91;3.18;;;;;;;;;;349939;154;857117;-62
2022/05/15 04:50:24;;;;;;;6.82;3.13;;;;;;;;;;349964;153;857301;-63
2022/05/15 04:51:26;;;;;;;6.94;4.04;;;;;;;;;;349923;153;857194;-62
2022/05/15 04:52:27;;;;;;;7.67;3.36;;;;;;;;;;349810;153;858381;-63
2022/05/15 04:53:30;;;;;;;7.28;3.31;;;;;;;;;;349947;153;865268;-63
2022/05/15 04:54:32;;;;;;;7.66;3.54;;;;;;;;;;349878;153;857595;-62
2022/05/15 04:55:33;;;;;;;7.81;3.73;;;;;;;;;;350007;153;856729;-63
2022/05/15 04:56:35;;;;;;;6.86;3.36;;;;;;;;;;349943;153;857636;-63
2022/05/15 04:57:36;;;;;;;6.48;3.31;;;;;;;;;;350242;153;867032;-64
2022/05/15 04:58:38;;;;;;;11.61;4.14;;;;;;;;;;351975;153;858841;-64
2022/05/15 04:59:39;;;;;;;7.83;3.76;;;;;;;;;;350330;153;858881;-65
2022/05/15 05:00:43;;;;;;;6.94;3.87;;;;;;;;;;349931;153;858748;-65
2022/05/15 05:01:45;;;;;;;6.35;3.47;;;;;;;;;;349766;154;857933;-64
2022/05/15 05:02:46;;;;;;;9.15;3.86;;;;;;;;;;349958;152;859413;-63
2022/05/15 05:03:48;;;;;;;5.53;3.18;;;;;;;;;;350054;151;866700;-64
2022/05/15 05:04:49;;;;;;;12.19;3.68;;;;;;;;;;352084;151;857672;-64
2022/05/15 05:05:51;;;;;;;9.05;3.27;;;;;;;;;;350058;153;858890;-63
2022/05/15 05:06:52;;;;;;;10.61;4.26;;;;;;;;;;350029;153;858902;-64
2022/05/15 05:07:54;;;;;;;10.03;4.19;;;;;;;;;;350026;153;865193;-63
2022/05/15 05:08:55;;;;;;;9.26;4.20;;;;;;;;;;350113;154;857798;-63
2022/05/15 05:09:57;;;;;;;7.81;3.06;;;;;;;;;;350097;154;859711;-63
2022/05/15 05:10:59;;;;;;;8.82;3.35;;;;;;;;;;350072;154;859574;-64
2022/05/15 05:12:00;;;;;;;8.98;3.25;;;;;;;;;;350083;154;858264;-63
2022/05/15 05:13:02;;;;;;;7.27;2.99;;;;;;;;;;350017;154;858606;-64
2022/05/15 05:14:04;;;;;;;8.69;3.07;;;;;;;;;;350116;154;859386;-62
2022/05/15 05:15:06;;;;;;;9.26;3.27;;;;;;;;;;350052;154;858676;-63
2022/05/15 05:16:08;;;;;;;4.17;2.76;;;;;;;;;;349963;153;858730;-65
2022/05/15 05:17:09;;;;;;;8.41;3.01;;;;;;;;;;350087;154;858411;-64
2022/05/15 05:18:14;;;;;;;6.75;3.02;;;;;;;;;;350143;153;857167;-63
2022/05/15 05:19:16;;;;;;;9.37;3.18;;;;;;;;;;349877;154;857613;-63
2022/05/15 05:20:18;;;;;;;7.45;2.67;;;;;;;;;;350060;153;857309;-63
2022/05/15 05:21:19;;;;;;;8.00;2.55;;;;;;;;;;349982;153;860504;-63
2022/05/15 05:22:21;;;;;;;9.15;3.66;;;;;;;;;;350087;152;864860;-62
2022/05/15 05:23:22;;;;;;;5.80;2.44;;;;;;;;;;350652;151;858596;-63
2022/05/15 05:24:24;;;;;;;6.59;2.25;;;;;;;;;;350692;153;859265;-64
2022/05/15 05:25:25;;;;;;;6.79;2.44;;;;;;;;;;350648;153;858748;-63
2022/05/15 05:26:27;;;;;;;3.94;2.23;;;;;;;;;;344556;156;860301;-63
2022/05/15 05:27:28;;;;;;;9.29;3.03;;;;;;;;;;347084;153;865662;-63
2022/05/15 05:28:30;;;;;;;5.96;2.31;;;;;;;;;;350681;153;858696;-64
2022/05/15 05:29:31;;;;;;;4.84;2.21;;;;;;;;;;350521;153;858694;-63
2022/05/15 05:30:33;;;;;;;7.49;2.83;;;;;;;;;;352203;152;864710;-65
2022/05/15 05:31:34;;;;;;;4.92;2.21;;;;;;;;;;352350;152;857192;-64
2022/05/15 05:32:36;;;;;;;3.96;1.95;;;;;;;;;;350671;153;857279;-63
2022/05/15 05:33:38;;;;;;;5.38;2.33;;;;;;;;;;350728;153;857246;-63
2022/05/15 05:34:39;;;;;;;4.84;2.76;;;;;;;;;;350770;153;857455;-63
2022/05/15 05:35:41;;;;;;;8.82;2.15;;;;;;;;;;350683;153;857308;-63
2022/05/15 05:36:42;;;;;;;4.72;2.50;;;;;;;;;;350634;153;857440;-64
2022/05/15 05:37:44;;;;;;;8.36;3.78;;;;;;;;;;350570;153;864844;-62
2022/05/15 05:38:45;;;;;;;5.09;2.44;;;;;;;;;;350702;153;857345;-63
2022/05/15 05:39:47;;;;;;;6.83;2.29;;;;;;;;;;350657;153;857368;-63
2022/05/15 05:40:48;;;;;;;5.23;2.21;;;;;;;;;;350627;153;865359;-63
2022/05/15 05:41:50;;;;;;;3.77;2.07;;;;;;;;;;350750;153;865191;-63
2022/05/15 05:42:52;;;;;;;4.45;2.28;;;;;;;;;;350767;153;866482;-62
2022/05/15 05:43:53;;;;;;;5.18;2.38;;;;;;;;;;350760;153;859060;-63
2022/05/15 05:44:55;;;;;;;5.51;2.20;;;;;;;;;;350811;153;858102;-63
2022/05/15 05:45:57;;;;;;;5.09;2.44;;;;;;;;;;350807;153;858143;-64
2022/05/15 05:46:59;;;;;;;3.41;1.91;;;;;;;;;;350732;153;860167;-64
2022/05/15 05:48:00;;;;;;;5.29;1.97;;;;;;;;;;350821;153;858116;-63
2022/05/15 05:49:02;;;;;;;5.39;2.38;;;;;;;;;;350852;153;858452;-63
2022/05/15 05:50:08;;;;;;;8.02;2.49;;;;;;;;;;350756;153;859088;-63
2022/05/15 05:51:08;;;;;;;9.52;2.69;;;;;;;;;;350408;153;865263;-63
2022/05/15 05:52:10;;;;;;;7.67;2.33;;;;;;;;;;350785;153;864681;-63
2022/05/15 05:53:11;;;;;;;4.13;2.16;;;;;;;;;;350815;153;858133;-63
2022/05/15 05:54:13;;;;;;;4.73;2.11;;;;;;;;;;347727;153;857326;-62
2022/05/15 05:55:15;;;;;;;5.29;2.24;;;;;;;;;;343415;156;860113;-63
2022/05/15 05:56:17;;;;;;;5.43;2.54;;;;;;;;;;343429;156;859714;-62
2022/05/15 05:57:18;;;;;;;5.91;2.14;;;;;;;;;;343517;157;857362;-63
2022/05/15 05:58:20;;;;;;;6.01;2.43;;;;;;;;;;345926;155;858935;-62
2022/05/15 05:59:21;;;;;;;5.52;2.04;;;;;;;;;;346648;155;857204;-62
2022/05/15 06:00:24;;;;;;;4.29;2.06;;;;;;;;;;346625;155;857189;-63
2022/05/15 06:01:26;;;;;;;3.98;2.02;;;;;;;;;;346412;155;864860;-62
2022/05/15 06:02:28;;;;;;;5.35;2.71;;;;;;;;;;346616;155;858734;-63
2022/05/15 06:04:50;;;;;;;5.47;2.26;;;;;;;;;;346247;155;857429;-64
2022/05/15 06:05:52;;;;;;;4.79;2.31;;;;;;;;;;346444;155;857624;-63
2022/05/15 06:06:53;;;;;;;7.24;2.18;;;;;;;;;;346484;155;857824;-63
2022/05/15 06:07:55;;;;;;;5.84;2.04;;;;;;;;;;345273;155;864792;-64
2022/05/15 06:08:56;;;;;;;5.79;2.43;;;;;;;;;;346512;155;857351;-63
2022/05/15 06:09:57;;;;;;;5.92;2.49;;;;;;;;;;346423;155;857294;-63
2022/05/15 06:10:59;;;;;;;7.82;2.51;;;;;;;;;;346513;155;857179;-63